Sunday, December 17, 2017, 3:35 PM CST
Back to Local

KLBL, Liberal, Liberal Municipal Airport

Location: Liberal, KS, United States Lat: 37.05
Local Time: 3:35 PM CST (21:35 GMT) Lon: -100.967
Time Zone: US/Central Elev: 2883 ft

Show me the last for .
Show Decoded

2017-12-17 14:56 METAR KLBL 172056Z AUTO 01011KT 10SM CLR 08/M02 A2997 RMK AO2 SLP157 T00781017
                 57015 =
2017-12-17 13:56 METAR KLBL 171956Z AUTO 35011KT 10SM CLR 08/M02 A2998 RMK AO2 SLP160 T00831017 =
2017-12-17 12:56 METAR KLBL 171856Z AUTO 33010G18KT 10SM CLR 07/M02 A3001 RMK AO2 SLP168
                 T00671017 =
2017-12-17 11:56 METAR KLBL 171756Z AUTO 36017G21KT 10SM CLR 05/M02 A3002 RMK AO2 SLP171
                 T00501017 10050 21050 50006 =
2017-12-17 11:18 METAR KLBL 171718Z AUTO 36017KT 10SM SCT017 04/M02 A3002 RMK AO2 =
2017-12-17 10:56 METAR KLBL 171656Z AUTO 34018KT 10SM OVC015 03/M02 A3002 RMK AO2 SLP174
                 T00281022 =
2017-12-17 10:40 METAR KLBL 171640Z AUTO 36017KT 10SM OVC015 02/M02 A3002 RMK AO2 FZRANO =
2017-12-17 09:56 METAR KLBL 171556Z AUTO 36019KT 10SM OVC011 01/M02 A3001 RMK AO2 SLP168
                 T00111022 FZRANO =
2017-12-17 08:56 METAR KLBL 171456Z AUTO 34017KT 10SM OVC007 M01/M02 A3000 RMK AO2 SLP166
                 T10061022 51022 FZRANO =
2017-12-17 08:22 METAR KLBL 171422Z AUTO 34016G22KT 10SM OVC007 M01/M02 A3000 RMK AO2 FZRANO TSNO
                 =
2017-12-17 07:56 METAR KLBL 171356Z AUTO 34015KT 10SM OVC005 M02/M03 A2999 RMK AO2 SLP164
                 T10171028 FZRANO =
2017-12-17 07:20 METAR KLBL 171320Z AUTO 34014KT 10SM BKN005 M03/M04 A2997 RMK AO2 FZRANO =
2017-12-17 07:10 METAR KLBL 171310Z AUTO 33014KT 10SM SCT005 M04/M06 A2996 RMK AO2 FZRANO =
2017-12-17 06:56 METAR KLBL 171256Z AUTO 33013KT 10SM CLR M04/M06 A2995 RMK AO2 SLP157 T10441056
                 FZRANO =
2017-12-17 05:56 METAR KLBL 171156Z AUTO 32011KT 10SM CLR M05/M07 A2993 RMK AO2 SLP146 7////
                 T10501067 10056 21056 53027 FZRANO =
2017-12-17 04:56 METAR KLBL 171056Z AUTO 07004KT 10SM CLR M04/M06 A2988 RMK AO2 SLP124 T10441061
                 FZRANO =
2017-12-17 03:56 METAR KLBL 170956Z AUTO 00000KT 10SM CLR M04/M07 A2987 RMK AO2 SLP120 T10441067
                 FZRANO =
2017-12-17 02:56 METAR KLBL 170856Z AUTO 16005KT 10SM CLR 01/M02 A2984 RMK AO2 SLP103 T00061022
                 53009 FZRANO =
2017-12-17 01:56 METAR KLBL 170756Z AUTO 17008KT 10SM CLR 01/M03 A2980 RMK AO2 SLP091 T00061028
                 FZRANO =
2017-12-17 00:56 METAR KLBL 170656Z AUTO 17011KT 10SM CLR 04/M02 A2981 RMK AO2 SLP091 T00391022 =
2017-12-16 23:56 METAR KLBL 170556Z AUTO 16010KT 10SM CLR 06/M04 A2981 RMK AO2 SLP094 6////
                 T00561039 10106 20056 401671044 53011 =
2017-12-16 22:56 METAR KLBL 170456Z AUTO 18012KT 10SM SCT100 07/M03 A2980 RMK AO2 SLP089
                 T00721033 =
2017-12-16 21:56 METAR KLBL 170356Z AUTO 18010KT 10SM FEW120 09/M03 A2978 RMK AO2 SLP086
                 T00891028 =
2017-12-16 20:56 METAR KLBL 170256Z AUTO 18014KT 10SM CLR 10/M03 A2978 RMK AO2 SLP091 T01001033
                 51014 =
2017-12-16 19:56 METAR KLBL 170156Z AUTO 17009KT 10SM CLR 10/M04 A2977 RMK AO2 SLP088 T01001044 =
2017-12-16 18:56 METAR KLBL 170056Z AUTO 18011KT 10SM CLR 08/M07 A2975 RMK AO2 SLP084 T00781072
                 TSNO =
2017-12-16 17:56 METAR KLBL 162356Z AUTO 18013KT 10SM CLR 11/M08 A2974 RMK AO2 SLP076 T01061078
                 10167 20100 53013 =
2017-12-16 16:56 METAR KLBL 162256Z AUTO 17018KT 10SM CLR 14/M09 A2972 RMK AO2 SLP065 T01391089 =
2017-12-16 15:56 METAR KLBL 162156Z AUTO 17019KT 10SM CLR 16/M09 A2970 RMK AO2 PK WND 18027/2102
                 SLP056 T01611094 =

Support USWX by starting your Amazon purchase here.